createdAt,value
2023-05-05T00:01:54.248Z,5.28
2023-05-05T00:04:25.706Z,6.78
2023-05-05T00:06:56.826Z,6.90
2023-05-05T00:09:28.124Z,5.43
2023-05-05T00:11:59.697Z,9.32
2023-05-05T00:14:31.177Z,7.60
2023-05-05T00:19:34.063Z,6.25
2023-05-05T00:22:05.806Z,5.18
2023-05-05T00:24:37.563Z,5.53
2023-05-05T00:29:39.803Z,5.22
2023-05-05T00:32:11.139Z,6.75
2023-05-05T00:34:42.428Z,7.70
2023-05-05T00:37:13.834Z,8.85
2023-05-05T00:42:17.204Z,8.13
2023-05-05T00:44:48.604Z,8.25
2023-05-05T00:47:20.013Z,10.05
2023-05-05T00:52:22.558Z,8.45
2023-05-05T00:54:53.693Z,8.63
2023-05-05T00:57:24.747Z,10.65
2023-05-05T00:59:56.874Z,11.38
2023-05-05T01:04:58.889Z,10.68
2023-05-05T01:07:39.037Z,14.75
2023-05-05T01:10:20.135Z,15.43
2023-05-05T01:13:14.695Z,15.77
2023-05-05T01:16:13.350Z,16.42
2023-05-05T01:19:31.218Z,21.98
2023-05-05T01:22:04.942Z,18.42
2023-05-05T01:24:49.151Z,16.73
2023-05-05T01:28:07.796Z,15.38
2023-05-05T01:31:15.242Z,12.93
2023-05-05T01:34:00.665Z,19.35
2023-05-05T01:36:39.197Z,23.67
2023-05-05T01:39:14.840Z,19.55
2023-05-05T01:41:49.501Z,18.60
2023-05-05T01:44:21.898Z,20.75
2023-05-05T01:46:54.944Z,13.50
2023-05-05T01:49:26.791Z,17.35
2023-05-05T01:51:59.251Z,16.08
2023-05-05T01:54:32.970Z,15.05
2023-05-05T01:57:06.502Z,17.38
2023-05-05T01:59:40.457Z,15.80
2023-05-05T02:02:13.568Z,20.23
2023-05-05T02:04:46.413Z,15.32
2023-05-05T02:07:18.309Z,20.98
2023-05-05T02:09:50.965Z,15.50
2023-05-05T02:12:22.902Z,18.00
2023-05-05T02:14:55.148Z,19.48
2023-05-05T02:17:27.543Z,17.92
2023-05-05T02:20:00.953Z,16.52
2023-05-05T02:22:33.130Z,14.48
2023-05-05T02:25:05.373Z,18.92
2023-05-05T02:27:38.552Z,17.85
2023-05-05T02:30:12.595Z,17.58
2023-05-05T02:32:49.263Z,17.63
2023-05-05T02:35:24.685Z,15.68
2023-05-05T02:38:04.110Z,19.02
2023-05-05T02:40:42.183Z,14.60
2023-05-05T02:43:19.058Z,14.75
2023-05-05T02:45:50.865Z,19.08
2023-05-05T02:48:23.154Z,17.35
2023-05-05T02:50:56.093Z,14.43
2023-05-05T02:53:35.357Z,17.15
2023-05-05T02:56:46.681Z,13.85
2023-05-05T02:59:54.518Z,15.93
2023-05-05T03:02:46.935Z,17.00
2023-05-05T03:05:37.518Z,14.52
2023-05-05T03:08:20.382Z,12.55
2023-05-05T03:11:23.277Z,15.45
2023-05-05T03:14:00.834Z,15.30
2023-05-05T03:16:32.431Z,16.15
2023-05-05T03:19:05.373Z,14.63
2023-05-05T03:21:36.994Z,16.58
2023-05-05T03:24:21.625Z,16.55
2023-05-05T03:27:02.007Z,13.45
2023-05-05T03:29:38.265Z,15.38
2023-05-05T03:32:14.198Z,14.30
2023-05-05T03:34:46.044Z,14.07
2023-05-05T03:37:18.120Z,21.13
2023-05-05T03:39:50.437Z,16.80
2023-05-05T03:42:21.547Z,15.30
2023-05-05T03:44:55.270Z,13.77
2023-05-05T03:47:27.214Z,17.20
2023-05-05T03:49:59.949Z,19.15
2023-05-05T03:52:31.032Z,20.65
2023-05-05T03:55:02.460Z,16.13
2023-05-05T03:57:35.655Z,13.48
2023-05-05T04:00:07.551Z,23.42
2023-05-05T04:02:45.134Z,15.65
2023-05-05T04:05:21.311Z,16.35
2023-05-05T04:07:53.200Z,15.07
2023-05-05T04:12:55.311Z,17.73
2023-05-05T04:15:26.816Z,17.08
2023-05-05T04:17:58.731Z,15.60
2023-05-05T04:20:33.593Z,15.20
2023-05-05T04:23:04.723Z,16.17
2023-05-05T04:28:08.012Z,16.08
2023-05-05T04:30:40.227Z,13.13
2023-05-05T04:33:11.610Z,16.05
2023-05-05T04:35:42.683Z,13.85
2023-05-05T04:38:14.450Z,14.57
2023-05-05T04:40:45.990Z,19.10
2023-05-05T04:43:17.099Z,19.02
2023-05-05T04:45:55.894Z,15.65
2023-05-05T04:48:31.571Z,19.50
2023-05-05T04:51:07.425Z,15.57
2023-05-05T04:53:40.085Z,18.88
2023-05-05T04:58:42.953Z,16.20
2023-05-05T05:01:14.085Z,16.35
2023-05-05T05:03:45.687Z,21.73
2023-05-05T05:06:17.287Z,16.92
2023-05-05T05:08:48.701Z,18.75
2023-05-05T05:11:20.162Z,19.08
2023-05-05T05:13:51.493Z,16.58
2023-05-05T05:16:23.032Z,14.35
2023-05-05T05:21:24.818Z,14.63
2023-05-05T05:23:56.469Z,19.65
2023-05-05T05:26:28.653Z,18.00
2023-05-05T05:29:00.898Z,16.90
2023-05-05T05:31:32.849Z,14.48
2023-05-05T05:34:04.855Z,16.30
2023-05-05T05:36:35.969Z,19.77
2023-05-05T05:39:07.026Z,18.05
2023-05-05T05:41:37.981Z,14.63
2023-05-05T05:44:09.150Z,21.02
2023-05-05T05:46:40.861Z,19.10
2023-05-05T05:49:12.374Z,19.17
2023-05-05T05:51:46.657Z,19.10
2023-05-05T05:54:23.999Z,33.75
2023-05-05T05:56:55.135Z,27.73
2023-05-05T05:59:26.212Z,23.50
2023-05-05T06:01:58.395Z,20.33
2023-05-05T06:04:30.165Z,22.90
2023-05-05T06:07:02.074Z,14.13
2023-05-05T06:09:33.298Z,19.73
2023-05-05T06:12:05.386Z,21.10
2023-05-05T06:14:37.222Z,21.38
2023-05-05T06:17:08.636Z,22.40
2023-05-05T06:19:42.449Z,21.80
2023-05-05T06:22:14.212Z,18.45
2023-05-05T06:24:46.697Z,15.90
2023-05-05T06:27:18.416Z,20.73
2023-05-05T06:29:50.604Z,19.85
2023-05-05T06:32:21.968Z,22.90
2023-05-05T06:34:53.222Z,20.77
2023-05-05T06:37:24.461Z,21.63
2023-05-05T06:39:55.459Z,19.80
2023-05-05T06:42:26.732Z,18.33
2023-05-05T06:45:00.852Z,18.95
2023-05-05T06:47:32.069Z,14.57
2023-05-05T06:50:03.280Z,17.38
2023-05-05T06:52:34.622Z,17.50
2023-05-05T06:55:05.993Z,16.85
2023-05-05T06:57:37.247Z,12.85
2023-05-05T07:00:12.724Z,14.43
2023-05-05T07:02:44.021Z,15.73
2023-05-05T07:07:59.104Z,16.38
2023-05-05T07:10:30.708Z,17.77
2023-05-05T07:13:01.979Z,16.75
2023-05-05T07:15:33.190Z,15.18
2023-05-05T07:18:04.886Z,14.52
2023-05-05T07:20:36.609Z,12.05
2023-05-05T07:23:07.742Z,17.90
2023-05-05T07:25:39.737Z,15.80
2023-05-05T07:28:10.780Z,18.45
2023-05-05T07:30:42.396Z,16.10
2023-05-05T07:33:13.724Z,17.40
2023-05-05T07:35:45.023Z,19.50
2023-05-05T07:38:16.162Z,17.73
2023-05-05T07:40:47.456Z,15.23
2023-05-05T07:43:18.881Z,12.52
2023-05-05T07:45:50.206Z,13.50
2023-05-05T07:48:21.508Z,17.58
2023-05-05T07:50:54.056Z,21.27
2023-05-05T07:53:25.624Z,15.95
2023-05-05T07:55:57.102Z,16.23
2023-05-05T07:58:28.794Z,12.68
2023-05-05T08:01:00.945Z,20.67
2023-05-05T08:03:32.677Z,17.95
2023-05-05T08:06:13.169Z,18.40
2023-05-05T08:08:45.109Z,13.52
2023-05-05T08:11:17.228Z,13.40
2023-05-05T08:13:48.957Z,16.02
2023-05-05T08:16:20.576Z,15.85
2023-05-05T08:18:51.905Z,14.82
2023-05-05T08:21:23.123Z,13.70
2023-05-05T08:23:54.181Z,14.40
2023-05-05T08:26:25.032Z,18.33
2023-05-05T08:28:58.150Z,14.55
2023-05-05T08:31:37.184Z,15.02
2023-05-05T08:34:08.955Z,13.80
2023-05-05T08:36:40.334Z,15.20
2023-05-05T08:39:11.466Z,19.75
2023-05-05T08:41:42.827Z,15.27
2023-05-05T08:44:14.375Z,15.48
2023-05-05T08:46:46.451Z,15.05
2023-05-05T08:49:18.699Z,15.68
2023-05-05T08:51:50.336Z,15.50
2023-05-05T08:54:22.730Z,15.50
2023-05-05T08:56:54.898Z,16.40
2023-05-05T08:59:26.802Z,17.90
2023-05-05T09:02:02.268Z,14.25
2023-05-05T09:04:34.272Z,16.35
2023-05-05T09:07:05.712Z,18.35
2023-05-05T09:09:37.343Z,18.77
2023-05-05T09:12:08.896Z,17.48
2023-05-05T09:14:40.289Z,14.77
2023-05-05T09:17:27.909Z,13.18
2023-05-05T09:20:19.627Z,18.13
2023-05-05T09:22:51.066Z,18.20
2023-05-05T09:25:22.617Z,17.35
2023-05-05T09:30:28.645Z,11.27
2023-05-05T09:33:00.849Z,14.20
2023-05-05T09:35:32.402Z,19.48
2023-05-05T09:38:13.869Z,16.33
2023-05-05T09:40:53.437Z,18.83
2023-05-05T09:43:25.465Z,17.90
2023-05-05T09:46:09.876Z,16.92
2023-05-05T09:48:41.425Z,16.13
2023-05-05T09:51:12.951Z,18.40
2023-05-05T09:53:44.306Z,18.42
2023-05-05T09:56:15.452Z,22.15
2023-05-05T10:01:27.241Z,16.60
2023-05-05T10:03:58.985Z,17.17
2023-05-05T10:09:16.841Z,14.63
2023-05-05T10:14:21.098Z,11.70
2023-05-05T10:16:54.514Z,16.98
2023-05-05T10:19:26.544Z,17.58
2023-05-05T10:22:01.844Z,17.63
2023-05-05T10:24:39.298Z,17.20
2023-05-05T10:27:19.837Z,14.55
2023-05-05T10:30:00.161Z,18.27
2023-05-05T10:32:51.944Z,17.10
2023-05-05T10:35:29.490Z,19.00
2023-05-05T10:38:01.211Z,18.77
2023-05-05T10:40:33.278Z,17.38
2023-05-05T10:43:05.196Z,17.15
2023-05-05T10:45:36.525Z,23.00
2023-05-05T10:50:46.876Z,15.63
2023-05-05T10:53:38.917Z,18.73
2023-05-05T10:56:29.017Z,20.98
2023-05-05T10:59:00.969Z,13.43
2023-05-05T11:01:34.689Z,18.15
2023-05-05T11:04:25.673Z,18.55
2023-05-05T11:07:14.798Z,16.92
2023-05-05T11:10:03.639Z,15.15
2023-05-05T11:13:04.080Z,16.95
2023-05-05T11:15:39.012Z,18.50
2023-05-05T11:18:10.326Z,15.20
2023-05-05T11:20:41.615Z,16.33
2023-05-05T11:23:15.226Z,15.15
2023-05-05T11:25:48.034Z,16.88
2023-05-05T11:28:21.306Z,22.02
2023-05-05T11:31:02.926Z,16.83
2023-05-05T11:33:42.725Z,16.77
2023-05-05T11:36:19.307Z,15.40
2023-05-05T11:39:01.606Z,15.63
2023-05-05T11:41:54.559Z,16.73
2023-05-05T11:44:37.228Z,17.98
2023-05-05T11:47:08.481Z,18.35
2023-05-05T11:49:41.581Z,19.40
2023-05-05T11:52:14.692Z,15.60
2023-05-05T11:54:51.953Z,17.25
2023-05-05T11:57:30.217Z,19.35
2023-05-05T12:00:06.634Z,20.35
2023-05-05T12:02:44.220Z,16.08
2023-05-05T12:05:22.542Z,21.23
2023-05-05T12:08:00.196Z,21.85
2023-05-05T12:10:31.756Z,16.73
2023-05-05T12:13:03.023Z,19.30
2023-05-05T12:15:35.313Z,18.85
2023-05-05T12:18:07.884Z,15.68
2023-05-05T12:20:39.104Z,16.77
2023-05-05T12:23:13.848Z,16.10
2023-05-05T12:25:47.115Z,21.40
2023-05-05T12:28:18.492Z,18.45
2023-05-05T12:31:01.766Z,17.02
2023-05-05T12:33:33.522Z,16.05
2023-05-05T12:36:05.846Z,15.75
2023-05-05T12:38:38.994Z,17.48
2023-05-05T12:41:10.365Z,17.98
2023-05-05T12:46:14.080Z,16.75
2023-05-05T12:48:47.952Z,22.45
2023-05-05T12:51:24.898Z,18.95
2023-05-05T12:54:09.953Z,20.55
2023-05-05T12:56:42.203Z,19.35
2023-05-05T12:59:24.035Z,19.98
2023-05-05T13:04:28.914Z,16.67
2023-05-05T13:07:21.072Z,19.33
2023-05-05T13:09:53.552Z,18.02
2023-05-05T13:12:25.137Z,14.90
2023-05-05T13:14:56.698Z,17.25
2023-05-05T13:17:28.252Z,17.58
2023-05-05T13:19:59.610Z,15.35
2023-05-05T13:22:32.179Z,19.13
2023-05-05T13:25:03.564Z,17.02
2023-05-05T13:27:35.685Z,17.60
2023-05-05T13:30:07.618Z,21.83
2023-05-05T13:32:39.063Z,17.48
2023-05-05T13:35:11.711Z,17.85
2023-05-05T13:37:45.856Z,18.17
2023-05-05T13:40:17.699Z,19.20
2023-05-05T13:42:49.531Z,15.25
2023-05-05T13:45:21.180Z,20.40
2023-05-05T13:47:52.738Z,21.77
2023-05-05T13:50:25.259Z,19.20
2023-05-05T13:52:56.680Z,16.25
2023-05-05T13:55:29.740Z,15.52
2023-05-05T13:58:01.427Z,14.30
2023-05-05T14:00:33.248Z,16.02
2023-05-05T14:03:04.723Z,18.27
2023-05-05T14:05:36.618Z,16.98
2023-05-05T14:08:08.104Z,18.45
2023-05-05T14:10:39.611Z,19.45
2023-05-05T14:13:11.353Z,19.08
2023-05-05T14:15:42.643Z,13.98
2023-05-05T14:20:45.057Z,21.05
2023-05-05T14:23:16.348Z,17.98
2023-05-05T14:25:47.820Z,16.40
2023-05-05T14:30:50.097Z,17.45
2023-05-05T14:33:21.750Z,20.13
2023-05-05T14:35:52.931Z,19.30
2023-05-05T14:38:24.260Z,17.05
2023-05-05T14:40:55.915Z,15.55
2023-05-05T14:43:27.179Z,15.05
2023-05-05T14:46:01.683Z,16.60
2023-05-05T14:48:33.037Z,21.10
2023-05-05T14:51:04.368Z,16.63
2023-05-05T14:53:37.452Z,13.55
2023-05-05T14:56:10.361Z,12.23
2023-05-05T15:01:12.627Z,17.05
2023-05-05T15:06:15.105Z,17.25
2023-05-05T15:08:46.694Z,17.73
2023-05-05T15:11:18.148Z,16.38
2023-05-05T15:16:20.498Z,14.75
2023-05-05T15:21:23.022Z,19.35
2023-05-05T15:23:54.639Z,17.73
2023-05-05T15:26:25.859Z,15.27
2023-05-05T15:28:57.484Z,17.85
2023-05-05T15:33:59.561Z,17.23
2023-05-05T15:39:02.338Z,16.08
2023-05-05T15:41:36.360Z,17.35
2023-05-05T15:44:07.703Z,13.20
2023-05-05T15:46:38.889Z,13.52
2023-05-05T15:49:10.054Z,19.52
2023-05-05T15:51:41.925Z,15.52
2023-05-05T15:54:12.997Z,13.43
2023-05-05T15:56:47.469Z,12.13
2023-05-05T15:59:19.335Z,12.55
2023-05-05T16:04:22.010Z,15.10
2023-05-05T16:06:53.101Z,13.50
2023-05-05T16:09:24.491Z,15.77
2023-05-05T16:11:56.420Z,12.85
2023-05-05T16:14:29.311Z,14.95
2023-05-05T16:17:03.535Z,15.93
2023-05-05T16:19:35.259Z,16.92
2023-05-05T16:22:07.835Z,15.02
2023-05-05T16:24:39.011Z,15.52
2023-05-05T16:29:41.314Z,13.98
2023-05-05T16:32:12.514Z,15.77
2023-05-05T16:34:43.768Z,14.82
2023-05-05T16:37:14.946Z,17.42
2023-05-05T16:39:46.130Z,17.42
2023-05-05T16:42:18.188Z,13.65
2023-05-05T16:44:49.295Z,15.82
2023-05-05T16:47:20.892Z,17.02
2023-05-05T16:49:54.047Z,15.95
2023-05-05T16:52:25.678Z,14.48
2023-05-05T16:54:58.164Z,16.13
2023-05-05T16:57:29.596Z,16.55
2023-05-05T17:00:00.840Z,17.25
2023-05-05T17:02:34.476Z,23.02
2023-05-05T17:05:06.157Z,15.40
2023-05-05T17:07:37.421Z,18.48
2023-05-05T17:10:09.608Z,14.55
2023-05-05T17:12:41.109Z,21.20
2023-05-05T17:15:12.474Z,14.35
2023-05-05T17:17:43.990Z,16.60
2023-05-05T17:20:15.751Z,20.08
2023-05-05T17:22:48.128Z,16.52
2023-05-05T17:27:50.608Z,16.75
2023-05-05T17:30:22.219Z,20.95
2023-05-05T17:32:54.050Z,16.02
2023-05-05T17:35:25.273Z,11.90
2023-05-05T17:37:56.719Z,15.13
2023-05-05T17:40:28.254Z,13.68
2023-05-05T17:43:00.348Z,12.60
2023-05-05T17:45:32.137Z,15.23
2023-05-05T17:48:03.905Z,13.43
2023-05-05T17:50:35.216Z,14.15
2023-05-05T17:53:06.796Z,11.07
2023-05-05T17:55:38.451Z,11.18
2023-05-05T17:58:09.764Z,12.43
2023-05-05T18:00:41.294Z,8.35
2023-05-05T18:03:12.756Z,12.00
2023-05-05T18:05:44.370Z,12.02
2023-05-05T18:08:15.541Z,11.63
2023-05-05T18:10:46.809Z,11.43
2023-05-05T18:13:18.382Z,10.10
2023-05-05T18:15:49.600Z,9.90
2023-05-05T18:18:20.970Z,10.85
2023-05-05T18:20:52.331Z,10.48
2023-05-05T18:23:23.470Z,9.15
2023-05-05T18:25:54.670Z,9.93
2023-05-05T18:28:25.832Z,8.85
2023-05-05T18:30:57.315Z,8.73
2023-05-05T18:33:28.628Z,7.07
2023-05-05T18:35:59.782Z,7.32
2023-05-05T18:38:31.150Z,9.95
2023-05-05T18:41:02.571Z,7.43
2023-05-05T18:43:34.832Z,6.63
2023-05-05T18:46:06.483Z,7.13
2023-05-05T18:48:37.700Z,6.07
2023-05-05T18:51:09.163Z,6.68
2023-05-05T18:53:40.181Z,6.72
2023-05-05T18:56:11.494Z,7.55
2023-05-05T19:01:14.497Z,8.27
2023-05-05T19:03:52.372Z,7.40
2023-05-05T19:06:23.674Z,9.93
2023-05-05T19:08:55.393Z,7.60
2023-05-05T19:11:27.157Z,11.15
2023-05-05T19:13:58.425Z,8.63
2023-05-05T19:16:30.239Z,11.13
2023-05-05T19:21:33.766Z,10.05
2023-05-05T19:24:05.666Z,7.00
2023-05-05T19:26:37.269Z,9.75
2023-05-05T19:29:08.599Z,5.93
2023-05-05T19:31:40.008Z,7.93
2023-05-05T19:36:42.959Z,7.00
2023-05-05T19:41:47.433Z,6.50
2023-05-05T19:44:19.636Z,5.60
2023-05-05T19:46:51.064Z,8.10
2023-05-05T19:49:22.454Z,6.68
2023-05-05T19:51:55.868Z,8.25
2023-05-05T19:54:27.805Z,6.13
2023-05-05T19:56:59.485Z,6.30
2023-05-05T20:02:01.606Z,8.52
2023-05-05T20:07:05.149Z,4.53
2023-05-05T20:09:36.553Z,8.00
2023-05-05T20:14:39.086Z,10.32
2023-05-05T20:17:10.536Z,9.85
2023-05-05T20:19:41.941Z,7.10
2023-05-05T20:22:13.179Z,9.40
2023-05-05T20:24:45.365Z,10.05
2023-05-05T20:27:16.589Z,6.82
2023-05-05T20:32:22.053Z,9.40
2023-05-05T20:34:53.349Z,9.82
2023-05-05T20:37:24.915Z,8.27
2023-05-05T20:39:58.247Z,8.73
2023-05-05T20:42:31.022Z,11.52
2023-05-05T20:45:03.866Z,9.55
2023-05-05T20:47:37.581Z,14.00
2023-05-05T20:50:10.136Z,11.43
2023-05-05T20:52:41.604Z,15.93
2023-05-05T20:55:13.177Z,15.25
2023-05-05T20:57:44.476Z,16.00
2023-05-05T21:00:16.176Z,16.92
2023-05-05T21:02:47.680Z,15.88
2023-05-05T21:07:49.279Z,16.20
2023-05-05T21:10:20.728Z,21.10
2023-05-05T21:12:52.709Z,16.83
2023-05-05T21:15:24.033Z,17.15
2023-05-05T21:17:55.789Z,17.10
2023-05-05T21:20:27.141Z,16.33
2023-05-05T21:22:59.449Z,16.08
2023-05-05T21:25:32.187Z,16.05
2023-05-05T21:28:03.399Z,13.32
2023-05-05T21:30:34.863Z,19.23
2023-05-05T21:33:06.324Z,18.02
2023-05-05T21:35:37.474Z,13.55
2023-05-05T21:38:08.503Z,14.38
2023-05-05T21:40:39.740Z,15.50
2023-05-05T21:43:10.793Z,16.60
2023-05-05T21:45:43.086Z,16.58
2023-05-05T21:48:14.459Z,16.30
2023-05-05T21:50:45.736Z,14.43
2023-05-05T21:53:16.957Z,14.52
2023-05-05T21:55:49.251Z,18.13
2023-05-05T21:58:21.894Z,17.95
2023-05-05T22:00:53.974Z,17.80
2023-05-05T22:03:25.818Z,15.57
2023-05-05T22:05:57.390Z,13.35
2023-05-05T22:08:28.552Z,20.88
2023-05-05T22:10:59.771Z,13.63
2023-05-05T22:13:31.003Z,15.23
2023-05-05T22:16:02.420Z,14.18
2023-05-05T22:18:33.793Z,14.50
2023-05-05T22:21:06.476Z,15.40
2023-05-05T22:23:38.702Z,18.38
2023-05-05T22:26:12.293Z,12.50
2023-05-05T22:28:43.505Z,13.85
2023-05-05T22:31:14.832Z,18.45
2023-05-05T22:33:46.414Z,16.27
2023-05-05T22:36:17.852Z,17.75
2023-05-05T22:38:49.110Z,17.35
2023-05-05T22:41:20.695Z,13.32
2023-05-05T22:43:51.919Z,17.10
2023-05-05T22:48:54.362Z,13.80
2023-05-05T22:51:25.419Z,13.55
2023-05-05T22:53:57.169Z,15.35
2023-05-05T22:56:28.509Z,11.02
2023-05-05T22:58:59.570Z,12.23
2023-05-05T23:01:33.091Z,10.68
2023-05-05T23:04:05.828Z,8.95
2023-05-05T23:06:37.236Z,12.15
2023-05-05T23:09:09.009Z,13.30
2023-05-05T23:14:10.878Z,12.75
2023-05-05T23:16:41.968Z,10.52
2023-05-05T23:19:13.071Z,12.13
2023-05-05T23:24:24.655Z,13.63
2023-05-05T23:26:56.048Z,9.38
2023-05-05T23:31:58.974Z,8.70
2023-05-05T23:37:01.740Z,9.35
2023-05-05T23:39:36.248Z,9.13
2023-05-05T23:42:07.551Z,10.27
2023-05-05T23:44:38.862Z,9.48
2023-05-05T23:47:10.972Z,8.90
2023-05-05T23:49:42.956Z,10.43
2023-05-05T23:54:47.328Z,14.23
2023-05-05T23:57:18.510Z,10.63
2023-05-05T23:59:50.018Z,9.57
